sensor_id;sensor_type;location;lat;lon;timestamp;temperature;humidity
25188;DHT22;13141;50.414;8.050;2022-07-30T00:02:08;21.70;94.90
25188;DHT22;13141;50.414;8.050;2022-07-30T00:04:34;21.70;95.00
25188;DHT22;13141;50.414;8.050;2022-07-30T00:07:00;21.70;96.30
25188;DHT22;13141;50.414;8.050;2022-07-30T00:09:28;21.40;96.00
25188;DHT22;13141;50.414;8.050;2022-07-30T00:11:53;21.60;96.00
25188;DHT22;13141;50.414;8.050;2022-07-30T00:14:19;21.40;96.00
25188;DHT22;13141;50.414;8.050;2022-07-30T00:16:45;21.40;97.00
25188;DHT22;13141;50.414;8.050;2022-07-30T00:19:10;21.40;96.80
25188;DHT22;13141;50.414;8.050;2022-07-30T00:21:36;21.40;96.80
25188;DHT22;13141;50.414;8.050;2022-07-30T00:24:03;21.40;97.00
25188;DHT22;13141;50.414;8.050;2022-07-30T00:26:28;21.40;97.20
25188;DHT22;13141;50.414;8.050;2022-07-30T00:28:54;21.30;97.00
25188;DHT22;13141;50.414;8.050;2022-07-30T00:31:20;21.30;97.30
25188;DHT22;13141;50.414;8.050;2022-07-30T00:33:45;21.30;97.50
25188;DHT22;13141;50.414;8.050;2022-07-30T00:36:11;21.20;97.80
25188;DHT22;13141;50.414;8.050;2022-07-30T00:38:36;21.20;98.60
25188;DHT22;13141;50.414;8.050;2022-07-30T00:41:02;20.90;98.20
25188;DHT22;13141;50.414;8.050;2022-07-30T00:43:28;20.90;98.20
25188;DHT22;13141;50.414;8.050;2022-07-30T00:45:53;20.80;98.60
25188;DHT22;13141;50.414;8.050;2022-07-30T00:48:19;20.70;98.50
25188;DHT22;13141;50.414;8.050;2022-07-30T00:50:44;20.60;98.60
25188;DHT22;13141;50.414;8.050;2022-07-30T00:53:10;20.60;98.60
25188;DHT22;13141;50.414;8.050;2022-07-30T00:55:35;20.50;98.80
25188;DHT22;13141;50.414;8.050;2022-07-30T00:58:01;20.00;98.90
25188;DHT22;13141;50.414;8.050;2022-07-30T01:00:27;20.40;98.90
25188;DHT22;13141;50.414;8.050;2022-07-30T01:02:53;20.40;98.90
25188;DHT22;13141;50.414;8.050;2022-07-30T01:05:18;20.40;99.10
25188;DHT22;13141;50.414;8.050;2022-07-30T01:07:44;20.40;99.00
25188;DHT22;13141;50.414;8.050;2022-07-30T01:10:12;20.30;99.10
25188;DHT22;13141;50.414;8.050;2022-07-30T01:12:38;20.30;99.30
25188;DHT22;13141;50.414;8.050;2022-07-30T01:15:07;20.20;99.10
25188;DHT22;13141;50.414;8.050;2022-07-30T01:17:34;20.20;99.30
25188;DHT22;13141;50.414;8.050;2022-07-30T01:20:06;20.20;99.40
25188;DHT22;13141;50.414;8.050;2022-07-30T01:27:59;20.00;99.90
25188;DHT22;13141;50.414;8.050;2022-07-30T01:30:30;20.00;99.80
25188;DHT22;13141;50.414;8.050;2022-07-30T01:32:57;20.00;99.90
25188;DHT22;13141;50.414;8.050;2022-07-30T01:35:25;20.00;99.90
25188;DHT22;13141;50.414;8.050;2022-07-30T01:37:53;19.80;99.90
25188;DHT22;13141;50.414;8.050;2022-07-30T01:40:20;19.60;99.90
25188;DHT22;13141;50.414;8.050;2022-07-30T01:42:49;19.30;99.90
25188;DHT22;13141;50.414;8.050;2022-07-30T01:45:18;19.60;99.90
25188;DHT22;13141;50.414;8.050;2022-07-30T01:47:44;18.80;99.90
25188;DHT22;13141;50.414;8.050;2022-07-30T01:50:11;19.20;99.90
25188;DHT22;13141;50.414;8.050;2022-07-30T01:52:40;19.20;99.90
25188;DHT22;13141;50.414;8.050;2022-07-30T01:55:08;19.30;99.90
25188;DHT22;13141;50.414;8.050;2022-07-30T01:57:35;19.30;99.90
25188;DHT22;13141;50.414;8.050;2022-07-30T02:00:04;19.30;99.90
25188;DHT22;13141;50.414;8.050;2022-07-30T02:02:31;19.30;99.90
25188;DHT22;13141;50.414;8.050;2022-07-30T02:04:57;19.20;99.90
25188;DHT22;13141;50.414;8.050;2022-07-30T02:07:28;19.20;99.90
25188;DHT22;13141;50.414;8.050;2022-07-30T02:10:16;19.20;99.90
25188;DHT22;13141;50.414;8.050;2022-07-30T02:12:50;19.20;99.90
25188;DHT22;13141;50.414;8.050;2022-07-30T02:15:28;19.20;99.90
25188;DHT22;13141;50.414;8.050;2022-07-30T02:18:03;19.10;99.90
25188;DHT22;13141;50.414;8.050;2022-07-30T02:20:32;19.10;99.90
25188;DHT22;13141;50.414;8.050;2022-07-30T02:23:01;19.00;99.90
25188;DHT22;13141;50.414;8.050;2022-07-30T02:25:32;19.00;99.90
25188;DHT22;13141;50.414;8.050;2022-07-30T02:28:02;18.90;99.90
25188;DHT22;13141;50.414;8.050;2022-07-30T02:30:30;18.90;99.90
25188;DHT22;13141;50.414;8.050;2022-07-30T02:33:02;18.80;99.90
25188;DHT22;13141;50.414;8.050;2022-07-30T02:35:28;18.80;99.90
25188;DHT22;13141;50.414;8.050;2022-07-30T02:37:57;18.80;99.90
25188;DHT22;13141;50.414;8.050;2022-07-30T02:40:24;18.80;99.90
25188;DHT22;13141;50.414;8.050;2022-07-30T02:42:52;18.90;99.90
25188;DHT22;13141;50.414;8.050;2022-07-30T02:45:19;18.80;99.90
25188;DHT22;13141;50.414;8.050;2022-07-30T02:47:49;18.80;99.90
25188;DHT22;13141;50.414;8.050;2022-07-30T02:50:17;18.70;99.90
25188;DHT22;13141;50.414;8.050;2022-07-30T02:52:44;18.60;99.90
25188;DHT22;13141;50.414;8.050;2022-07-30T02:55:11;18.50;99.90
25188;DHT22;13141;50.414;8.050;2022-07-30T02:57:40;18.50;99.90
25188;DHT22;13141;50.414;8.050;2022-07-30T03:00:07;18.40;99.90
25188;DHT22;13141;50.414;8.050;2022-07-30T03:02:33;18.30;99.90
25188;DHT22;13141;50.414;8.050;2022-07-30T03:05:01;18.30;99.90
25188;DHT22;13141;50.414;8.050;2022-07-30T03:07:29;18.30;99.90
25188;DHT22;13141;50.414;8.050;2022-07-30T03:09:57;18.20;99.90
25188;DHT22;13141;50.414;8.050;2022-07-30T03:12:23;18.20;99.90
25188;DHT22;13141;50.414;8.050;2022-07-30T03:14:50;18.20;99.90
25188;DHT22;13141;50.414;8.050;2022-07-30T03:17:17;18.20;99.90
25188;DHT22;13141;50.414;8.050;2022-07-30T03:19:44;18.20;99.90
25188;DHT22;13141;50.414;8.050;2022-07-30T03:22:11;18.10;99.90
25188;DHT22;13141;50.414;8.050;2022-07-30T03:24:39;18.30;99.90
25188;DHT22;13141;50.414;8.050;2022-07-30T03:27:08;18.00;99.90
25188;DHT22;13141;50.414;8.050;2022-07-30T03:29:34;18.00;99.90
25188;DHT22;13141;50.414;8.050;2022-07-30T03:32:03;17.90;99.90
25188;DHT22;13141;50.414;8.050;2022-07-30T03:34:32;17.90;99.90
25188;DHT22;13141;50.414;8.050;2022-07-30T03:36:58;17.90;99.90
25188;DHT22;13141;50.414;8.050;2022-07-30T03:39:24;17.90;99.90
25188;DHT22;13141;50.414;8.050;2022-07-30T03:41:50;17.80;99.90
25188;DHT22;13141;50.414;8.050;2022-07-30T03:44:18;17.80;99.90
25188;DHT22;13141;50.414;8.050;2022-07-30T03:46:43;17.70;99.90
25188;DHT22;13141;50.414;8.050;2022-07-30T03:49:10;17.50;99.90
25188;DHT22;13141;50.414;8.050;2022-07-30T03:51:36;17.50;99.90
25188;DHT22;13141;50.414;8.050;2022-07-30T03:54:02;17.50;99.90
25188;DHT22;13141;50.414;8.050;2022-07-30T03:56:30;17.40;99.90
25188;DHT22;13141;50.414;8.050;2022-07-30T03:58:56;17.30;99.90
25188;DHT22;13141;50.414;8.050;2022-07-30T04:01:25;17.30;99.90
25188;DHT22;13141;50.414;8.050;2022-07-30T04:03:51;17.40;99.90
25188;DHT22;13141;50.414;8.050;2022-07-30T04:06:16;17.40;99.90
25188;DHT22;13141;50.414;8.050;2022-07-30T04:08:42;17.30;99.90
25188;DHT22;13141;50.414;8.050;2022-07-30T04:11:08;17.30;99.90
25188;DHT22;13141;50.414;8.050;2022-07-30T04:13:33;17.30;99.90
25188;DHT22;13141;50.414;8.050;2022-07-30T04:16:16;17.30;99.90
25188;DHT22;13141;50.414;8.050;2022-07-30T04:18:48;17.20;99.90
25188;DHT22;13141;50.414;8.050;2022-07-30T04:21:17;17.10;99.90
25188;DHT22;13141;50.414;8.050;2022-07-30T04:23:44;17.20;99.90
25188;DHT22;13141;50.414;8.050;2022-07-30T04:26:10;17.10;99.90
25188;DHT22;13141;50.414;8.050;2022-07-30T04:28:36;17.10;99.90
25188;DHT22;13141;50.414;8.050;2022-07-30T04:31:04;17.10;99.90
25188;DHT22;13141;50.414;8.050;2022-07-30T04:33:30;17.00;99.90
25188;DHT22;13141;50.414;8.050;2022-07-30T04:35:56;17.00;99.90
25188;DHT22;13141;50.414;8.050;2022-07-30T04:38:22;17.20;99.90
25188;DHT22;13141;50.414;8.050;2022-07-30T04:40:47;16.90;99.90
25188;DHT22;13141;50.414;8.050;2022-07-30T04:43:13;16.80;99.90
25188;DHT22;13141;50.414;8.050;2022-07-30T04:45:40;16.50;99.90
25188;DHT22;13141;50.414;8.050;2022-07-30T04:48:06;16.90;99.90
25188;DHT22;13141;50.414;8.050;2022-07-30T04:50:35;16.70;99.90
25188;DHT22;13141;50.414;8.050;2022-07-30T04:53:02;16.80;99.90
25188;DHT22;13141;50.414;8.050;2022-07-30T04:55:29;16.80;99.90
25188;DHT22;13141;50.414;8.050;2022-07-30T04:57:56;16.80;99.90
25188;DHT22;13141;50.414;8.050;2022-07-30T05:00:23;16.80;99.90
25188;DHT22;13141;50.414;8.050;2022-07-30T05:02:50;16.80;99.90
25188;DHT22;13141;50.414;8.050;2022-07-30T05:05:17;16.90;99.90
25188;DHT22;13141;50.414;8.050;2022-07-30T05:07:44;16.90;99.90
25188;DHT22;13141;50.414;8.050;2022-07-30T05:10:11;17.00;99.90
25188;DHT22;13141;50.414;8.050;2022-07-30T05:12:37;17.00;99.90
25188;DHT22;13141;50.414;8.050;2022-07-30T05:15:07;16.90;99.90
25188;DHT22;13141;50.414;8.050;2022-07-30T05:17:34;16.90;99.90
25188;DHT22;13141;50.414;8.050;2022-07-30T05:20:00;17.00;99.90
25188;DHT22;13141;50.414;8.050;2022-07-30T05:22:26;17.00;99.90
25188;DHT22;13141;50.414;8.050;2022-07-30T05:24:58;17.00;99.90
25188;DHT22;13141;50.414;8.050;2022-07-30T05:27:23;17.20;99.90
25188;DHT22;13141;50.414;8.050;2022-07-30T05:29:49;17.30;99.90
25188;DHT22;13141;50.414;8.050;2022-07-30T05:32:15;17.20;99.90
25188;DHT22;13141;50.414;8.050;2022-07-30T05:34:40;17.10;99.90
25188;DHT22;13141;50.414;8.050;2022-07-30T05:37:06;17.20;99.90
25188;DHT22;13141;50.414;8.050;2022-07-30T05:39:32;17.30;99.90
25188;DHT22;13141;50.414;8.050;2022-07-30T05:41:57;17.30;99.90
25188;DHT22;13141;50.414;8.050;2022-07-30T05:44:23;17.40;99.90
25188;DHT22;13141;50.414;8.050;2022-07-30T05:46:48;17.50;99.90
25188;DHT22;13141;50.414;8.050;2022-07-30T05:49:14;17.60;99.90
25188;DHT22;13141;50.414;8.050;2022-07-30T05:51:40;17.60;99.90
25188;DHT22;13141;50.414;8.050;2022-07-30T05:54:06;17.70;99.90
25188;DHT22;13141;50.414;8.050;2022-07-30T05:56:32;17.70;99.90
25188;DHT22;13141;50.414;8.050;2022-07-30T05:58:58;17.60;99.90
25188;DHT22;13141;50.414;8.050;2022-07-30T06:01:23;17.60;99.90
25188;DHT22;13141;50.414;8.050;2022-07-30T06:03:49;17.60;99.90
25188;DHT22;13141;50.414;8.050;2022-07-30T06:06:15;17.60;99.90
25188;DHT22;13141;50.414;8.050;2022-07-30T06:08:40;17.80;99.90
25188;DHT22;13141;50.414;8.050;2022-07-30T06:11:06;17.90;99.90
25188;DHT22;13141;50.414;8.050;2022-07-30T06:13:33;18.00;99.90
25188;DHT22;13141;50.414;8.050;2022-07-30T06:15:59;18.10;99.90
25188;DHT22;13141;50.414;8.050;2022-07-30T06:18:24;18.20;99.90
25188;DHT22;13141;50.414;8.050;2022-07-30T06:20:51;18.10;99.90
25188;DHT22;13141;50.414;8.050;2022-07-30T06:23:19;18.20;99.90
25188;DHT22;13141;50.414;8.050;2022-07-30T06:25:45;18.20;99.90
25188;DHT22;13141;50.414;8.050;2022-07-30T06:28:11;18.30;99.90
25188;DHT22;13141;50.414;8.050;2022-07-30T06:30:36;18.40;99.90
25188;DHT22;13141;50.414;8.050;2022-07-30T06:33:02;18.30;99.90
25188;DHT22;13141;50.414;8.050;2022-07-30T06:35:28;18.40;99.90
25188;DHT22;13141;50.414;8.050;2022-07-30T06:37:53;18.50;99.90
25188;DHT22;13141;50.414;8.050;2022-07-30T06:40:19;18.40;99.90
25188;DHT22;13141;50.414;8.050;2022-07-30T06:42:45;18.40;99.90
25188;DHT22;13141;50.414;8.050;2022-07-30T06:45:11;18.40;99.90
25188;DHT22;13141;50.414;8.050;2022-07-30T06:47:36;18.50;99.90
25188;DHT22;13141;50.414;8.050;2022-07-30T06:50:02;18.50;99.90
25188;DHT22;13141;50.414;8.050;2022-07-30T06:52:28;18.60;99.90
25188;DHT22;13141;50.414;8.050;2022-07-30T06:54:54;18.70;99.90
25188;DHT22;13141;50.414;8.050;2022-07-30T06:57:19;18.90;99.90
25188;DHT22;13141;50.414;8.050;2022-07-30T06:59:45;18.90;99.90
25188;DHT22;13141;50.414;8.050;2022-07-30T07:02:10;19.00;99.90
25188;DHT22;13141;50.414;8.050;2022-07-30T07:04:36;19.20;99.90
25188;DHT22;13141;50.414;8.050;2022-07-30T07:07:02;19.30;99.90
25188;DHT22;13141;50.414;8.050;2022-07-30T07:09:28;19.40;99.90
25188;DHT22;13141;50.414;8.050;2022-07-30T07:11:54;19.50;99.90
25188;DHT22;13141;50.414;8.050;2022-07-30T07:14:19;19.60;99.90
25188;DHT22;13141;50.414;8.050;2022-07-30T07:16:47;19.80;99.90
25188;DHT22;13141;50.414;8.050;2022-07-30T07:19:13;19.90;99.90
25188;DHT22;13141;50.414;8.050;2022-07-30T07:21:38;20.20;99.90
25188;DHT22;13141;50.414;8.050;2022-07-30T07:24:04;20.10;99.90
25188;DHT22;13141;50.414;8.050;2022-07-30T07:26:30;20.20;99.90
25188;DHT22;13141;50.414;8.050;2022-07-30T07:28:56;20.30;99.90
25188;DHT22;13141;50.414;8.050;2022-07-30T07:31:22;20.40;99.90
25188;DHT22;13141;50.414;8.050;2022-07-30T07:33:47;20.50;99.90
25188;DHT22;13141;50.414;8.050;2022-07-30T07:36:14;20.80;99.90
25188;DHT22;13141;50.414;8.050;2022-07-30T07:38:39;20.90;99.90
25188;DHT22;13141;50.414;8.050;2022-07-30T07:41:05;21.10;99.90
25188;DHT22;13141;50.414;8.050;2022-07-30T07:43:31;21.40;99.90
25188;DHT22;13141;50.414;8.050;2022-07-30T07:45:57;21.60;99.90
25188;DHT22;13141;50.414;8.050;2022-07-30T07:48:23;21.70;99.90
25188;DHT22;13141;50.414;8.050;2022-07-30T07:50:48;21.90;99.90
25188;DHT22;13141;50.414;8.050;2022-07-30T07:53:14;22.00;99.90
25188;DHT22;13141;50.414;8.050;2022-07-30T07:55:40;22.20;99.90
25188;DHT22;13141;50.414;8.050;2022-07-30T07:58:05;22.30;99.70
25188;DHT22;13141;50.414;8.050;2022-07-30T08:00:31;22.30;99.70
25188;DHT22;13141;50.414;8.050;2022-07-30T08:02:56;22.60;99.60
25188;DHT22;13141;50.414;8.050;2022-07-30T08:05:22;22.50;99.40
25188;DHT22;13141;50.414;8.050;2022-07-30T08:07:48;22.60;99.20
25188;DHT22;13141;50.414;8.050;2022-07-30T08:10:14;23.00;99.90
25188;DHT22;13141;50.414;8.050;2022-07-30T08:12:40;23.20;99.70
25188;DHT22;13141;50.414;8.050;2022-07-30T08:15:07;23.40;98.50
25188;DHT22;13141;50.414;8.050;2022-07-30T08:17:42;23.60;98.30
25188;DHT22;13141;50.414;8.050;2022-07-30T08:20:09;23.80;98.00
25188;DHT22;13141;50.414;8.050;2022-07-30T08:22:35;24.00;98.50
25188;DHT22;13141;50.414;8.050;2022-07-30T08:25:02;24.30;97.80
25188;DHT22;13141;50.414;8.050;2022-07-30T08:27:28;24.30;96.50
25188;DHT22;13141;50.414;8.050;2022-07-30T08:29:53;24.40;96.70
25188;DHT22;13141;50.414;8.050;2022-07-30T08:32:19;24.60;97.40
25188;DHT22;13141;50.414;8.050;2022-07-30T08:34:45;24.80;96.70
25188;DHT22;13141;50.414;8.050;2022-07-30T08:37:10;25.00;97.30
25188;DHT22;13141;50.414;8.050;2022-07-30T08:39:36;25.30;96.60
25188;DHT22;13141;50.414;8.050;2022-07-30T08:42:02;25.60;96.60
25188;DHT22;13141;50.414;8.050;2022-07-30T08:44:28;25.70;95.60
25188;DHT22;13141;50.414;8.050;2022-07-30T08:46:55;25.80;95.80
25188;DHT22;13141;50.414;8.050;2022-07-30T08:49:23;26.10;96.10
25188;DHT22;13141;50.414;8.050;2022-07-30T08:51:50;26.30;94.60
25188;DHT22;13141;50.414;8.050;2022-07-30T08:54:17;26.40;94.10
25188;DHT22;13141;50.414;8.050;2022-07-30T08:56:44;26.30;94.00
25188;DHT22;13141;50.414;8.050;2022-07-30T08:59:10;26.50;94.00
25188;DHT22;13141;50.414;8.050;2022-07-30T09:01:35;26.50;92.90
25188;DHT22;13141;50.414;8.050;2022-07-30T09:04:01;26.70;93.20
25188;DHT22;13141;50.414;8.050;2022-07-30T09:06:27;26.70;92.60
25188;DHT22;13141;50.414;8.050;2022-07-30T09:08:53;26.90;92.70
25188;DHT22;13141;50.414;8.050;2022-07-30T09:11:19;27.00;92.80
25188;DHT22;13141;50.414;8.050;2022-07-30T09:13:44;27.10;91.50
25188;DHT22;13141;50.414;8.050;2022-07-30T09:16:24;27.40;91.60
25188;DHT22;13141;50.414;8.050;2022-07-30T09:18:51;27.40;90.60
25188;DHT22;13141;50.414;8.050;2022-07-30T09:21:27;27.50;91.00
25188;DHT22;13141;50.414;8.050;2022-07-30T09:24:04;27.90;90.40
25188;DHT22;13141;50.414;8.050;2022-07-30T09:26:31;28.10;91.10
25188;DHT22;13141;50.414;8.050;2022-07-30T09:29:19;28.30;89.40
25188;DHT22;13141;50.414;8.050;2022-07-30T09:32:11;28.50;87.10
25188;DHT22;13141;50.414;8.050;2022-07-30T09:34:38;28.80;85.50
25188;DHT22;13141;50.414;8.050;2022-07-30T09:39:40;29.40;82.80
25188;DHT22;13141;50.414;8.050;2022-07-30T09:42:18;29.40;83.30
25188;DHT22;13141;50.414;8.050;2022-07-30T09:44:44;29.50;83.80
25188;DHT22;13141;50.414;8.050;2022-07-30T09:47:32;29.70;82.80
25188;DHT22;13141;50.414;8.050;2022-07-30T09:52:28;29.90;79.10
25188;DHT22;13141;50.414;8.050;2022-07-30T09:54:53;30.00;79.90
25188;DHT22;13141;50.414;8.050;2022-07-30T09:57:19;30.20;79.70
25188;DHT22;13141;50.414;8.050;2022-07-30T10:02:13;30.40;77.70
25188;DHT22;13141;50.414;8.050;2022-07-30T10:04:39;29.90;77.80
25188;DHT22;13141;50.414;8.050;2022-07-30T10:07:16;29.60;76.90
25188;DHT22;13141;50.414;8.050;2022-07-30T10:09:42;29.40;75.50
25188;DHT22;13141;50.414;8.050;2022-07-30T10:12:10;29.70;79.00
25188;DHT22;13141;50.414;8.050;2022-07-30T10:14:37;30.00;76.30
25188;DHT22;13141;50.414;8.050;2022-07-30T10:17:04;29.70;73.50
25188;DHT22;13141;50.414;8.050;2022-07-30T10:19:31;29.40;76.70
25188;DHT22;13141;50.414;8.050;2022-07-30T10:21:58;29.40;74.90
25188;DHT22;13141;50.414;8.050;2022-07-30T10:24:24;29.70;72.10
25188;DHT22;13141;50.414;8.050;2022-07-30T10:26:53;29.90;72.10
25188;DHT22;13141;50.414;8.050;2022-07-30T10:29:19;30.30;74.00
25188;DHT22;13141;50.414;8.050;2022-07-30T10:31:47;30.70;70.60
25188;DHT22;13141;50.414;8.050;2022-07-30T10:34:14;31.10;73.30
25188;DHT22;13141;50.414;8.050;2022-07-30T10:36:51;31.30;70.10
25188;DHT22;13141;50.414;8.050;2022-07-30T10:39:22;31.40;68.80
25188;DHT22;13141;50.414;8.050;2022-07-30T10:47:17;32.00;68.40
25188;DHT22;13141;50.414;8.050;2022-07-30T10:50:15;31.90;66.80
25188;DHT22;13141;50.414;8.050;2022-07-30T10:55:20;32.20;66.70
25188;DHT22;13141;50.414;8.050;2022-07-30T11:00:25;31.10;67.00
25188;DHT22;13141;50.414;8.050;2022-07-30T11:03:12;31.00;71.00
25188;DHT22;13141;50.414;8.050;2022-07-30T11:05:38;31.60;68.90
25188;DHT22;13141;50.414;8.050;2022-07-30T11:08:34;32.00;65.30
25188;DHT22;13141;50.414;8.050;2022-07-30T11:11:00;32.00;63.60
25188;DHT22;13141;50.414;8.050;2022-07-30T11:13:55;32.40;65.30
25188;DHT22;13141;50.414;8.050;2022-07-30T11:19:17;33.00;62.60
25188;DHT22;13141;50.414;8.050;2022-07-30T11:24:46;32.90;58.90
25188;DHT22;13141;50.414;8.050;2022-07-30T11:30:00;32.90;57.20
25188;DHT22;13141;50.414;8.050;2022-07-30T11:40:24;33.70;58.10
25188;DHT22;13141;50.414;8.050;2022-07-30T11:42:51;33.90;56.00
25188;DHT22;13141;50.414;8.050;2022-07-30T11:47:46;33.80;57.20
25188;DHT22;13141;50.414;8.050;2022-07-30T11:50:24;33.90;57.80
25188;DHT22;13141;50.414;8.050;2022-07-30T11:53:05;33.80;57.40
25188;DHT22;13141;50.414;8.050;2022-07-30T11:55:32;33.30;56.30
25188;DHT22;13141;50.414;8.050;2022-07-30T11:57:59;33.50;57.30
25188;DHT22;13141;50.414;8.050;2022-07-30T12:00:42;33.60;53.30
25188;DHT22;13141;50.414;8.050;2022-07-30T12:03:16;33.50;54.10
25188;DHT22;13141;50.414;8.050;2022-07-30T12:05:43;33.90;54.70
25188;DHT22;13141;50.414;8.050;2022-07-30T12:08:10;34.10;54.20
25188;DHT22;13141;50.414;8.050;2022-07-30T12:10:36;33.50;53.70
25188;DHT22;13141;50.414;8.050;2022-07-30T12:13:14;33.00;54.40
25188;DHT22;13141;50.414;8.050;2022-07-30T12:15:45;33.10;54.70
25188;DHT22;13141;50.414;8.050;2022-07-30T12:18:12;33.50;54.10
25188;DHT22;13141;50.414;8.050;2022-07-30T12:20:41;33.90;55.40
25188;DHT22;13141;50.414;8.050;2022-07-30T12:23:14;34.70;54.30
25188;DHT22;13141;50.414;8.050;2022-07-30T12:25:41;34.50;49.60
25188;DHT22;13141;50.414;8.050;2022-07-30T12:28:07;34.50;51.60
25188;DHT22;13141;50.414;8.050;2022-07-30T12:30:33;34.40;52.70
25188;DHT22;13141;50.414;8.050;2022-07-30T12:33:02;34.10;52.20
25188;DHT22;13141;50.414;8.050;2022-07-30T12:35:44;33.90;51.50
25188;DHT22;13141;50.414;8.050;2022-07-30T12:38:10;34.00;52.70
25188;DHT22;13141;50.414;8.050;2022-07-30T12:41:04;34.20;52.80
25188;DHT22;13141;50.414;8.050;2022-07-30T12:43:46;34.70;54.50
25188;DHT22;13141;50.414;8.050;2022-07-30T12:46:15;35.10;52.20
25188;DHT22;13141;50.414;8.050;2022-07-30T12:48:56;34.70;50.80
25188;DHT22;13141;50.414;8.050;2022-07-30T12:51:24;35.00;53.20
25188;DHT22;13141;50.414;8.050;2022-07-30T12:53:52;35.40;51.80
25188;DHT22;13141;50.414;8.050;2022-07-30T12:56:23;35.80;51.90
25188;DHT22;13141;50.414;8.050;2022-07-30T12:58:49;36.10;52.50
25188;DHT22;13141;50.414;8.050;2022-07-30T13:01:15;36.30;53.10
25188;DHT22;13141;50.414;8.050;2022-07-30T13:03:42;36.10;49.90
25188;DHT22;13141;50.414;8.050;2022-07-30T13:06:20;35.90;52.60
25188;DHT22;13141;50.414;8.050;2022-07-30T13:08:54;35.90;52.60
25188;DHT22;13141;50.414;8.050;2022-07-30T13:11:40;36.10;52.60
25188;DHT22;13141;50.414;8.050;2022-07-30T13:14:07;35.90;50.80
25188;DHT22;13141;50.414;8.050;2022-07-30T13:16:34;35.30;50.20
25188;DHT22;13141;50.414;8.050;2022-07-30T13:19:02;35.70;50.00
25188;DHT22;13141;50.414;8.050;2022-07-30T13:21:28;35.90;50.30
25188;DHT22;13141;50.414;8.050;2022-07-30T13:23:54;36.00;51.30
25188;DHT22;13141;50.414;8.050;2022-07-30T13:26:19;36.20;49.70
25188;DHT22;13141;50.414;8.050;2022-07-30T13:28:45;35.90;49.00
25188;DHT22;13141;50.414;8.050;2022-07-30T13:31:13;35.70;49.00
25188;DHT22;13141;50.414;8.050;2022-07-30T13:33:39;35.90;49.00
25188;DHT22;13141;50.414;8.050;2022-07-30T13:36:05;36.00;48.00
25188;DHT22;13141;50.414;8.050;2022-07-30T13:38:31;35.60;47.30
25188;DHT22;13141;50.414;8.050;2022-07-30T13:40:58;35.60;49.40
25188;DHT22;13141;50.414;8.050;2022-07-30T13:43:24;35.70;49.80
25188;DHT22;13141;50.414;8.050;2022-07-30T13:45:51;36.00;50.50
25188;DHT22;13141;50.414;8.050;2022-07-30T13:48:18;35.90;46.60
25188;DHT22;13141;50.414;8.050;2022-07-30T13:50:44;35.40;45.70
25188;DHT22;13141;50.414;8.050;2022-07-30T13:53:10;35.40;46.50
25188;DHT22;13141;50.414;8.050;2022-07-30T13:55:37;35.30;46.50
25188;DHT22;13141;50.414;8.050;2022-07-30T13:58:03;35.20;47.10
25188;DHT22;13141;50.414;8.050;2022-07-30T14:00:31;35.30;47.70
25188;DHT22;13141;50.414;8.050;2022-07-30T14:03:05;35.40;48.20
25188;DHT22;13141;50.414;8.050;2022-07-30T14:05:31;35.70;49.70
25188;DHT22;13141;50.414;8.050;2022-07-30T14:07:58;35.90;48.90
25188;DHT22;13141;50.414;8.050;2022-07-30T14:10:23;35.90;48.20
25188;DHT22;13141;50.414;8.050;2022-07-30T14:12:50;36.20;47.80
25188;DHT22;13141;50.414;8.050;2022-07-30T14:15:20;36.30;48.60
25188;DHT22;13141;50.414;8.050;2022-07-30T14:17:46;36.40;47.90
25188;DHT22;13141;50.414;8.050;2022-07-30T14:20:11;36.30;48.50
25188;DHT22;13141;50.414;8.050;2022-07-30T14:22:37;36.20;47.00
25188;DHT22;13141;50.414;8.050;2022-07-30T14:25:03;36.20;45.70
25188;DHT22;13141;50.414;8.050;2022-07-30T14:27:28;36.00;45.90
25188;DHT22;13141;50.414;8.050;2022-07-30T14:29:54;36.20;46.60
25188;DHT22;13141;50.414;8.050;2022-07-30T14:32:20;36.10;46.00
25188;DHT22;13141;50.414;8.050;2022-07-30T14:34:45;36.10;46.10
25188;DHT22;13141;50.414;8.050;2022-07-30T14:37:11;36.10;45.30
25188;DHT22;13141;50.414;8.050;2022-07-30T14:39:36;36.30;45.00
25188;DHT22;13141;50.414;8.050;2022-07-30T14:42:02;36.40;44.90
25188;DHT22;13141;50.414;8.050;2022-07-30T14:44:27;36.80;43.80
25188;DHT22;13141;50.414;8.050;2022-07-30T14:46:53;36.50;43.90
25188;DHT22;13141;50.414;8.050;2022-07-30T14:49:20;36.70;43.00
25188;DHT22;13141;50.414;8.050;2022-07-30T14:51:45;36.40;42.60
25188;DHT22;13141;50.414;8.050;2022-07-30T14:54:11;36.10;43.10
25188;DHT22;13141;50.414;8.050;2022-07-30T14:56:37;35.70;43.50
25188;DHT22;13141;50.414;8.050;2022-07-30T14:59:03;35.30;43.80
25188;DHT22;13141;50.414;8.050;2022-07-30T15:01:28;34.80;43.50
25188;DHT22;13141;50.414;8.050;2022-07-30T15:03:54;34.40;44.30
25188;DHT22;13141;50.414;8.050;2022-07-30T15:06:20;34.20;45.30
25188;DHT22;13141;50.414;8.050;2022-07-30T15:08:46;34.40;45.60
25188;DHT22;13141;50.414;8.050;2022-07-30T15:11:11;34.30;44.70
25188;DHT22;13141;50.414;8.050;2022-07-30T15:13:37;33.90;43.50
25188;DHT22;13141;50.414;8.050;2022-07-30T15:16:03;33.90;42.80
25188;DHT22;13141;50.414;8.050;2022-07-30T15:18:30;34.20;42.70
25188;DHT22;13141;50.414;8.050;2022-07-30T15:20:57;34.50;43.50
25188;DHT22;13141;50.414;8.050;2022-07-30T15:23:23;34.80;42.00
25188;DHT22;13141;50.414;8.050;2022-07-30T15:25:48;35.00;40.80
25188;DHT22;13141;50.414;8.050;2022-07-30T15:28:14;35.20;41.00
25188;DHT22;13141;50.414;8.050;2022-07-30T15:30:39;35.30;39.60
25188;DHT22;13141;50.414;8.050;2022-07-30T15:33:05;35.30;41.60
25188;DHT22;13141;50.414;8.050;2022-07-30T15:35:31;35.40;41.60
25188;DHT22;13141;50.414;8.050;2022-07-30T15:37:57;35.50;42.00
25188;DHT22;13141;50.414;8.050;2022-07-30T15:40:23;35.50;41.90
25188;DHT22;13141;50.414;8.050;2022-07-30T15:42:49;35.60;41.60
25188;DHT22;13141;50.414;8.050;2022-07-30T15:45:15;35.60;41.00
25188;DHT22;13141;50.414;8.050;2022-07-30T15:47:40;35.60;41.30
25188;DHT22;13141;50.414;8.050;2022-07-30T15:50:06;35.50;41.60
25188;DHT22;13141;50.414;8.050;2022-07-30T15:52:32;35.40;40.60
25188;DHT22;13141;50.414;8.050;2022-07-30T15:55:01;35.20;40.60
25188;DHT22;13141;50.414;8.050;2022-07-30T15:57:26;35.00;40.50
25188;DHT22;13141;50.414;8.050;2022-07-30T15:59:52;34.80;41.00
25188;DHT22;13141;50.414;8.050;2022-07-30T16:02:17;34.80;41.60
25188;DHT22;13141;50.414;8.050;2022-07-30T16:04:43;34.50;40.90
25188;DHT22;13141;50.414;8.050;2022-07-30T16:07:09;34.40;42.30
25188;DHT22;13141;50.414;8.050;2022-07-30T16:09:34;34.30;42.50
25188;DHT22;13141;50.414;8.050;2022-07-30T16:12:00;34.30;42.30
25188;DHT22;13141;50.414;8.050;2022-07-30T16:14:26;34.40;42.50
25188;DHT22;13141;50.414;8.050;2022-07-30T16:16:51;34.20;42.60